createdAt,value
2022-09-01T00:03:20.258Z,11.75
2022-09-01T00:08:43.066Z,11.69
2022-09-01T00:14:22.206Z,11.57
2022-09-01T00:19:49.999Z,11.59
2022-09-01T00:25:12.580Z,11.39
2022-09-01T00:30:34.982Z,11.51
2022-09-01T00:35:57.201Z,11.95
2022-09-01T00:41:23.683Z,12.02
2022-09-01T00:46:50.993Z,12.06
2022-09-01T00:52:22.400Z,11.94
2022-09-01T00:57:46.085Z,11.84
2022-09-01T01:03:09.962Z,11.80
2022-09-01T01:08:34.961Z,11.67
2022-09-01T01:14:06.321Z,11.43
2022-09-01T01:19:56.479Z,11.41
2022-09-01T01:25:19.622Z,11.36
2022-09-01T01:30:45.625Z,11.24
2022-09-01T01:36:13.750Z,10.87
2022-09-01T01:41:36.866Z,10.86
2022-09-01T01:46:59.237Z,10.65
2022-09-01T01:52:21.762Z,10.55
2022-09-01T01:57:53.519Z,10.74
2022-09-01T02:03:20.757Z,10.61
2022-09-01T02:08:43.138Z,10.54
2022-09-01T02:14:07.147Z,10.39
2022-09-01T02:19:35.378Z,10.66
2022-09-01T02:24:59.008Z,10.53
2022-09-01T02:30:21.266Z,10.61
2022-09-01T02:35:43.698Z,10.64
2022-09-01T02:41:08.675Z,10.73
2022-09-01T02:46:31.240Z,10.87
2022-09-01T02:51:58.498Z,11.06
2022-09-01T02:57:23.487Z,11.04
2022-09-01T03:02:45.998Z,11.04
2022-09-01T03:08:11.117Z,11.09
2022-09-01T03:13:33.085Z,11.13
2022-09-01T03:18:55.548Z,11.12
2022-09-01T03:24:20.565Z,11.17
2022-09-01T03:29:43.452Z,11.22
2022-09-01T03:35:06.887Z,11.28
2022-09-01T03:40:35.096Z,11.25
2022-09-01T03:46:02.319Z,11.24
2022-09-01T03:51:26.041Z,10.86
2022-09-01T03:56:48.359Z,10.96
2022-09-01T04:02:13.749Z,10.96
2022-09-01T04:07:37.418Z,11.09
2022-09-01T04:13:02.818Z,11.16
2022-09-01T04:18:28.657Z,11.10
2022-09-01T04:24:03.181Z,11.32
2022-09-01T04:29:32.176Z,11.09
2022-09-01T04:35:04.690Z,11.25
2022-09-01T04:40:30.766Z,11.17
2022-09-01T04:45:54.453Z,11.39
2022-09-01T04:51:19.578Z,11.54
2022-09-01T04:56:53.023Z,11.65
2022-09-01T05:02:16.764Z,11.68
2022-09-01T05:07:40.349Z,11.36
2022-09-01T05:13:03.818Z,11.58
2022-09-01T05:18:28.817Z,11.40
2022-09-01T05:23:53.728Z,11.36
2022-09-01T05:29:21.667Z,11.46
2022-09-01T05:34:45.969Z,11.53
2022-09-01T05:40:17.030Z,11.87
2022-09-01T05:46:05.224Z,12.09
2022-09-01T05:51:46.343Z,12.35
2022-09-01T05:57:33.973Z,12.51
2022-09-01T06:02:59.785Z,12.35
2022-09-01T06:08:28.026Z,12.15
2022-09-01T06:13:55.387Z,12.07
2022-09-01T06:19:21.367Z,12.07
2022-09-01T06:24:53.770Z,12.31
2022-09-01T06:30:24.239Z,12.09
2022-09-01T06:36:10.077Z,12.12
2022-09-01T06:41:32.278Z,12.18
2022-09-01T06:46:55.470Z,12.57
2022-09-01T06:52:18.210Z,12.49
2022-09-01T07:03:24.418Z,12.61
2022-09-01T07:21:08.240Z,12.79
2022-09-01T07:26:52.658Z,12.88
2022-09-01T07:43:43.069Z,12.87
2022-09-01T07:49:52.418Z,12.68
2022-09-01T07:55:00.087Z,13.06
2022-09-01T08:00:26.189Z,13.02
2022-09-01T08:06:15.216Z,13.23
2022-09-01T08:12:00.990Z,13.18
2022-09-01T08:17:51.177Z,12.97
2022-09-01T08:23:12.960Z,12.95
2022-09-01T08:28:35.813Z,13.20
2022-09-01T08:34:00.769Z,13.24
2022-09-01T08:39:25.929Z,13.26
2022-09-01T08:45:20.568Z,13.53
2022-09-01T08:50:45.769Z,13.72
2022-09-01T08:56:20.208Z,13.66
2022-09-01T09:02:16.632Z,13.56
2022-09-01T09:08:06.652Z,13.59
2022-09-01T09:13:31.809Z,14.04
2022-09-01T09:19:03.562Z,14.20
2022-09-01T09:24:50.790Z,13.99
2022-09-01T09:30:26.822Z,13.90
2022-09-01T09:35:48.886Z,13.74
2022-09-01T09:41:26.873Z,14.07
2022-09-01T09:46:49.916Z,14.29
2022-09-01T09:52:19.051Z,14.35
2022-09-01T09:57:42.088Z,14.59
2022-09-01T10:03:13.982Z,14.80
2022-09-01T10:08:45.873Z,14.59
2022-09-01T10:14:35.400Z,14.60
2022-09-01T10:20:13.109Z,14.65
2022-09-01T10:25:41.207Z,14.57
2022-09-01T10:31:05.208Z,14.36
2022-09-01T10:36:31.218Z,14.47
2022-09-01T10:41:59.971Z,14.65
2022-09-01T10:47:33.173Z,14.81
2022-09-01T10:53:04.965Z,14.67
2022-09-01T11:04:31.432Z,14.42
2022-09-01T11:10:34.752Z,14.42
2022-09-01T11:16:48.085Z,14.31
2022-09-01T11:22:23.218Z,13.77
2022-09-01T11:27:50.867Z,14.23
2022-09-01T11:33:34.270Z,14.42
2022-09-01T11:39:22.406Z,14.46
2022-09-01T11:45:01.312Z,14.23
2022-09-01T11:50:34.558Z,14.06
2022-09-01T11:56:15.710Z,13.95
2022-09-01T12:01:41.137Z,14.10
2022-09-01T12:07:12.988Z,14.12
2022-09-01T12:12:40.217Z,14.16
2022-09-01T12:18:20.544Z,14.51
2022-09-01T12:23:46.021Z,14.39
2022-09-01T12:29:09.042Z,14.61
2022-09-01T12:34:34.207Z,14.68
2022-09-01T12:40:00.538Z,14.35
2022-09-01T12:45:47.768Z,14.63
2022-09-01T12:51:28.001Z,14.66
2022-09-01T12:56:53.837Z,14.74
2022-09-01T13:02:51.292Z,14.67
2022-09-01T13:08:18.328Z,14.54
2022-09-01T13:13:40.977Z,14.50
2022-09-01T13:19:11.928Z,14.74
2022-09-01T13:24:37.140Z,14.65
2022-09-01T13:29:59.301Z,14.57
2022-09-01T13:35:25.097Z,14.49
2022-09-01T13:40:51.831Z,14.56
2022-09-01T13:46:14.151Z,14.25
2022-09-01T13:51:40.507Z,14.57
2022-09-01T13:57:02.539Z,14.49
2022-09-01T14:02:26.600Z,14.31
2022-09-01T14:07:50.151Z,13.89
2022-09-01T14:13:23.443Z,13.85
2022-09-01T14:18:48.567Z,13.78
2022-09-01T14:24:14.534Z,13.73
2022-09-01T14:35:00.668Z,13.71
2022-09-01T14:40:29.987Z,13.94
2022-09-01T14:46:07.074Z,13.93
2022-09-01T14:57:36.386Z,13.73
2022-09-01T15:02:58.763Z,13.64
2022-09-01T15:08:22.132Z,13.73
2022-09-01T15:13:45.728Z,13.64
2022-09-01T15:19:10.238Z,13.61
2022-09-01T15:24:32.815Z,13.44
2022-09-01T15:29:56.639Z,13.11
2022-09-01T15:35:20.926Z,13.14
2022-09-01T15:40:44.939Z,12.93
2022-09-01T15:46:19.126Z,12.82
2022-09-01T15:51:46.199Z,12.69
2022-09-01T15:57:12.758Z,12.68
2022-09-01T16:02:39.549Z,12.32
2022-09-01T16:08:10.067Z,12.06
2022-09-01T16:13:34.879Z,12.12
2022-09-01T16:19:27.501Z,12.21
2022-09-01T16:24:55.337Z,11.90
2022-09-01T16:30:27.143Z,11.85
2022-09-01T16:36:08.638Z,12.07
2022-09-01T16:41:46.798Z,11.99
2022-09-01T16:47:24.902Z,11.79
2022-09-01T16:53:08.232Z,11.90
2022-09-01T16:58:44.019Z,11.84
2022-09-01T17:04:41.168Z,11.79
2022-09-01T17:10:06.958Z,11.72
2022-09-01T17:15:43.490Z,11.52
2022-09-01T17:21:19.680Z,11.65
2022-09-01T17:26:44.538Z,11.59
2022-09-01T17:32:30.925Z,11.68
2022-09-01T17:37:59.290Z,11.60
2022-09-01T17:43:46.080Z,11.29
2022-09-01T17:49:39.458Z,11.15
2022-09-01T17:55:49.235Z,10.97
2022-09-01T18:01:35.118Z,10.28
2022-09-01T18:07:46.877Z,10.12
2022-09-01T18:13:42.320Z,10.26
2022-09-01T18:19:17.120Z,9.93
2022-09-01T18:25:03.249Z,9.85
2022-09-01T18:30:52.115Z,10.06
2022-09-01T18:36:44.414Z,9.49
2022-09-01T18:42:35.788Z,9.87
2022-09-01T18:48:25.900Z,9.78
2022-09-01T18:54:35.648Z,9.33
2022-09-01T19:00:17.935Z,9.65
2022-09-01T19:06:17.419Z,9.24
2022-09-01T19:12:22.808Z,9.02
2022-09-01T19:17:59.938Z,9.43
2022-09-01T19:23:51.078Z,9.09
2022-09-01T19:29:25.858Z,9.12
2022-09-01T19:35:00.787Z,8.84
2022-09-01T19:46:22.904Z,9.14
2022-09-01T19:52:27.568Z,9.05
2022-09-01T19:58:04.648Z,8.94
2022-09-01T20:03:45.359Z,9.04
2022-09-01T20:09:36.853Z,8.96
2022-09-01T20:15:29.934Z,8.97
2022-09-01T20:20:52.228Z,8.86
2022-09-01T20:26:23.828Z,8.74
2022-09-01T20:31:51.688Z,8.79
2022-09-01T20:37:30.816Z,8.70
2022-09-01T20:43:23.101Z,8.57
2022-09-01T20:48:46.738Z,8.48
2022-09-01T20:54:49.820Z,8.42
2022-09-01T21:00:27.178Z,8.34
2022-09-01T21:06:30.437Z,8.26
2022-09-01T21:12:02.528Z,8.21
2022-09-01T21:18:02.178Z,8.06
2022-09-01T21:23:26.679Z,8.40
2022-09-01T21:28:54.568Z,8.23
2022-09-01T21:34:17.034Z,8.33
2022-09-01T21:39:39.307Z,8.33
2022-09-01T21:45:04.322Z,8.35
2022-09-01T21:50:27.288Z,8.01
2022-09-01T21:55:52.128Z,8.31
2022-09-01T22:01:14.582Z,8.03
2022-09-01T22:06:40.037Z,8.16
2022-09-01T22:12:02.659Z,8.21
2022-09-01T22:17:24.709Z,8.33
2022-09-01T22:22:47.586Z,7.99
2022-09-01T22:28:18.979Z,8.35
2022-09-01T22:33:41.847Z,7.99
2022-09-01T22:39:06.219Z,8.14
2022-09-01T22:44:28.507Z,8.06
2022-09-01T22:49:49.399Z,8.27
2022-09-01T22:55:12.226Z,8.02
2022-09-01T23:00:35.757Z,8.30
2022-09-01T23:06:10.977Z,8.35
2022-09-01T23:11:33.217Z,8.22
2022-09-01T23:16:55.569Z,8.26
2022-09-01T23:22:17.658Z,8.39
2022-09-01T23:27:40.389Z,8.41
2022-09-01T23:33:03.068Z,8.34
2022-09-01T23:38:27.419Z,8.08
2022-09-01T23:43:49.800Z,8.02
2022-09-01T23:49:16.640Z,7.66
2022-09-01T23:54:41.638Z,7.59
